Time;durP1;ratioP1;P1;durP2;ratioP2;P2;SDS_P1;SDS_P2;PMS_P1;PMS_P2;Temp;Humidity;BMP_temperature;BMP_pressure;BME280_temperature;BME280_humidity;BME280_pressure;Samples;Min_cycle;Max_cycle;Signal;HPM_P1;HPM_P2
2023/03/15 00:00:20;;;;;;;0.60;0.60;;;;;;;;;;5135633;27;20155;-82
2023/03/15 00:02:45;;;;;;;0.93;0.85;;;;;;;;;;5117892;27;20035;-82
2023/03/15 00:05:14;;;;;;;1.85;0.70;;;;;;;;;;5099677;27;20061;-81
2023/03/15 00:07:40;;;;;;;1.63;0.80;;;;;;;;;;5117738;27;20042;-81
2023/03/15 00:10:06;;;;;;;1.75;1.05;;;;;;;;;;5135517;27;20024;-82
2023/03/15 00:12:33;;;;;;;2.72;1.08;;;;;;;;;;5117073;27;20471;-81
2023/03/15 00:14:58;;;;;;;1.38;0.85;;;;;;;;;;5118251;27;20019;-82
2023/03/15 00:17:24;;;;;;;1.17;0.90;;;;;;;;;;5117542;27;20049;-82
2023/03/15 00:19:49;;;;;;;0.88;0.68;;;;;;;;;;5116937;27;20039;-82
2023/03/15 00:22:14;;;;;;;1.75;0.70;;;;;;;;;;5117283;27;20114;-82
2023/03/15 00:24:40;;;;;;;1.58;0.70;;;;;;;;;;5135382;27;20027;-81
2023/03/15 00:27:05;;;;;;;0.98;0.70;;;;;;;;;;5135207;27;20031;-81
2023/03/15 00:29:31;;;;;;;0.93;0.68;;;;;;;;;;5135115;27;20031;-81
2023/03/15 00:31:57;;;;;;;0.93;0.55;;;;;;;;;;5135303;27;20027;-81
2023/03/15 00:34:25;;;;;;;1.00;0.60;;;;;;;;;;5135513;27;20038;-81
2023/03/15 00:36:52;;;;;;;1.48;0.40;;;;;;;;;;5116909;27;20076;-82
2023/03/15 00:39:18;;;;;;;1.15;0.55;;;;;;;;;;5116832;27;20031;-81
2023/03/15 00:41:44;;;;;;;2.28;0.60;;;;;;;;;;5134788;27;20030;-81
2023/03/15 00:44:10;;;;;;;3.20;0.60;;;;;;;;;;5116633;27;20040;-82
2023/03/15 00:46:35;;;;;;;1.02;0.68;;;;;;;;;;5099267;27;20037;-82
2023/03/15 00:49:01;;;;;;;0.88;0.60;;;;;;;;;;5134459;27;20117;-81
2023/03/15 00:51:26;;;;;;;0.30;0.30;;;;;;;;;;5099127;27;20408;-82
2023/03/15 00:53:52;;;;;;;1.35;0.55;;;;;;;;;;5099188;27;20031;-82
2023/03/15 00:56:20;;;;;;;0.63;0.50;;;;;;;;;;5099272;27;20038;-82
2023/03/15 00:58:46;;;;;;;3.53;0.50;;;;;;;;;;5116380;27;20019;-82
2023/03/15 01:01:18;;;;;;;0.32;0.32;;;;;;;;;;5116317;27;20023;-81
2023/03/15 01:03:44;;;;;;;1.05;0.52;;;;;;;;;;5116256;27;20031;-81
2023/03/15 01:06:13;;;;;;;0.43;0.40;;;;;;;;;;5099299;27;20047;-81
2023/03/15 01:08:40;;;;;;;0.32;0.32;;;;;;;;;;5116263;27;20019;-81
2023/03/15 01:11:08;;;;;;;0.82;0.55;;;;;;;;;;5134420;27;20114;-82
2023/03/15 01:13:34;;;;;;;0.40;0.40;;;;;;;;;;5116044;27;20148;-81
2023/03/15 01:15:59;;;;;;;1.08;0.55;;;;;;;;;;5098580;27;20038;-82
2023/03/15 01:18:25;;;;;;;0.30;0.30;;;;;;;;;;5099145;27;20031;-82
2023/03/15 01:20:50;;;;;;;0.82;0.50;;;;;;;;;;5116198;27;20023;-82
2023/03/15 01:23:16;;;;;;;1.80;0.57;;;;;;;;;;5116747;27;20450;-82
2023/03/15 01:25:41;;;;;;;0.40;0.40;;;;;;;;;;5115969;27;20027;-82
2023/03/15 01:28:07;;;;;;;0.65;0.40;;;;;;;;;;5134439;27;20034;-82
2023/03/15 01:30:32;;;;;;;0.77;0.40;;;;;;;;;;5134188;27;20126;-82
2023/03/15 01:32:58;;;;;;;0.43;0.40;;;;;;;;;;5134067;27;20023;-82
2023/03/15 01:35:23;;;;;;;2.15;0.40;;;;;;;;;;5116197;27;20378;-82
2023/03/15 01:37:50;;;;;;;0.38;0.38;;;;;;;;;;5134034;27;20031;-82
2023/03/15 01:40:15;;;;;;;0.60;0.40;;;;;;;;;;5115565;28;20427;-83
2023/03/15 01:43:14;;;;;;;0.47;0.40;;;;;;;;;;5115642;28;20033;-83
2023/03/15 01:46:01;;;;;;;0.43;0.43;;;;;;;;;;5115685;28;20109;-83
2023/03/15 01:48:43;;;;;;;0.50;0.50;;;;;;;;;;5115331;28;20023;-82
2023/03/15 01:51:41;;;;;;;0.50;0.50;;;;;;;;;;5115933;28;20092;-81
2023/03/15 01:54:18;;;;;;;0.73;0.40;;;;;;;;;;5115303;28;20047;-81
2023/03/15 01:57:11;;;;;;;0.70;0.40;;;;;;;;;;5098250;28;20025;-81
2023/03/15 01:59:44;;;;;;;0.90;0.55;;;;;;;;;;5105158;28;20056;-81
2023/03/15 02:02:13;;;;;;;0.40;0.40;;;;;;;;;;5133661;28;20470;-82
2023/03/15 02:04:49;;;;;;;0.95;0.70;;;;;;;;;;5116455;28;20031;-81
2023/03/15 02:07:16;;;;;;;0.68;0.60;;;;;;;;;;5115919;28;20114;-81
2023/03/15 02:10:04;;;;;;;1.58;0.60;;;;;;;;;;5133681;28;20026;-82
2023/03/15 02:12:31;;;;;;;0.40;0.40;;;;;;;;;;5132288;28;20023;-83
2023/03/15 02:14:59;;;;;;;1.55;0.50;;;;;;;;;;5115466;28;20057;-81
2023/03/15 02:17:32;;;;;;;0.88;0.60;;;;;;;;;;5115560;28;20023;-82
2023/03/15 02:20:07;;;;;;;1.25;0.63;;;;;;;;;;5115139;28;20023;-82
2023/03/15 02:23:08;;;;;;;0.40;0.40;;;;;;;;;;5133522;28;20054;-82
2023/03/15 02:25:42;;;;;;;1.42;0.80;;;;;;;;;;5098172;28;20019;-83
2023/03/15 02:28:11;;;;;;;0.55;0.55;;;;;;;;;;5135476;27;20019;-83
2023/03/15 02:30:37;;;;;;;0.85;0.50;;;;;;;;;;5137537;27;20031;-82
2023/03/15 02:33:06;;;;;;;1.65;0.73;;;;;;;;;;5137162;27;20042;-82
2023/03/15 02:35:32;;;;;;;0.90;0.60;;;;;;;;;;5118996;27;20035;-82
2023/03/15 02:38:04;;;;;;;0.50;0.50;;;;;;;;;;5096363;28;20051;-82
2023/03/15 02:40:29;;;;;;;0.70;0.70;;;;;;;;;;5090140;28;20396;-82
2023/03/15 02:43:08;;;;;;;1.33;0.80;;;;;;;;;;5079268;27;20038;-82
2023/03/15 02:45:34;;;;;;;0.70;0.60;;;;;;;;;;5074600;28;20422;-81
2023/03/15 02:48:04;;;;;;;1.17;0.68;;;;;;;;;;5092483;28;20538;-82
2023/03/15 02:50:29;;;;;;;0.80;0.63;;;;;;;;;;5074336;28;20067;-82
2023/03/15 02:52:57;;;;;;;0.77;0.70;;;;;;;;;;5082063;28;20032;-83
2023/03/15 02:55:23;;;;;;;0.57;0.57;;;;;;;;;;5059155;28;20082;-82
2023/03/15 02:57:48;;;;;;;0.68;0.50;;;;;;;;;;5075467;28;20032;-81
2023/03/15 03:00:17;;;;;;;1.33;0.47;;;;;;;;;;5075929;28;20108;-81
2023/03/15 03:02:47;;;;;;;1.17;1.00;;;;;;;;;;5080558;28;20024;-83
2023/03/15 03:05:14;;;;;;;0.93;0.70;;;;;;;;;;5079101;28;20398;-80
2023/03/15 03:07:43;;;;;;;0.80;0.68;;;;;;;;;;5061703;28;20035;-82
2023/03/15 03:10:11;;;;;;;2.97;0.40;;;;;;;;;;5082797;28;20024;-82
2023/03/15 03:12:37;;;;;;;0.77;0.60;;;;;;;;;;5076856;28;20393;-83
2023/03/15 03:15:03;;;;;;;0.60;0.55;;;;;;;;;;5075121;28;20563;-81
2023/03/15 03:17:29;;;;;;;0.80;0.80;;;;;;;;;;5076263;28;20043;-83
2023/03/15 03:19:54;;;;;;;1.27;0.60;;;;;;;;;;5085095;28;20479;-83
2023/03/15 03:22:23;;;;;;;0.60;0.55;;;;;;;;;;5068509;28;20028;-82
2023/03/15 03:24:51;;;;;;;0.98;0.55;;;;;;;;;;5094973;28;20471;-82
2023/03/15 03:27:17;;;;;;;0.60;0.60;;;;;;;;;;5075063;28;20464;-83
2023/03/15 03:29:43;;;;;;;1.27;0.95;;;;;;;;;;5086522;28;20042;-82
2023/03/15 03:32:09;;;;;;;2.13;0.80;;;;;;;;;;5073565;28;20028;-82
2023/03/15 03:34:35;;;;;;;0.85;0.60;;;;;;;;;;5078693;28;20090;-82
2023/03/15 03:37:00;;;;;;;1.08;0.50;;;;;;;;;;5073414;28;20094;-82
2023/03/15 03:39:25;;;;;;;0.65;0.50;;;;;;;;;;5087296;28;20048;-82
2023/03/15 03:41:51;;;;;;;2.20;0.70;;;;;;;;;;5060301;28;20032;-82
2023/03/15 03:44:16;;;;;;;2.35;0.70;;;;;;;;;;5079277;28;20028;-81
2023/03/15 03:46:42;;;;;;;1.88;0.70;;;;;;;;;;5072799;28;20020;-81
2023/03/15 03:49:07;;;;;;;0.95;0.60;;;;;;;;;;5074357;28;20039;-81
2023/03/15 03:51:33;;;;;;;0.60;0.50;;;;;;;;;;5093829;28;20032;-82
2023/03/15 03:54:02;;;;;;;0.55;0.50;;;;;;;;;;5094788;28;20371;-81
2023/03/15 03:56:27;;;;;;;0.93;0.50;;;;;;;;;;5059963;28;20036;-81
2023/03/15 03:58:53;;;;;;;0.40;0.40;;;;;;;;;;5094510;28;20039;-82
2023/03/15 04:01:18;;;;;;;0.73;0.70;;;;;;;;;;5076446;28;20040;-81
2023/03/15 04:03:44;;;;;;;0.77;0.52;;;;;;;;;;5094771;28;20032;-82
2023/03/15 04:06:09;;;;;;;1.65;0.70;;;;;;;;;;5094520;28;20085;-81
2023/03/15 04:08:35;;;;;;;0.73;0.60;;;;;;;;;;5076349;28;20027;-83
2023/03/15 04:11:02;;;;;;;1.23;0.65;;;;;;;;;;5093298;28;20081;-82
2023/03/15 04:13:28;;;;;;;0.98;0.60;;;;;;;;;;5094575;28;20051;-81
2023/03/15 04:15:56;;;;;;;2.28;0.70;;;;;;;;;;5094397;28;20062;-81
2023/03/15 04:18:22;;;;;;;1.40;0.77;;;;;;;;;;5094236;28;20119;-82
2023/03/15 04:20:48;;;;;;;0.93;0.60;;;;;;;;;;5059420;28;20058;-81
2023/03/15 04:23:14;;;;;;;0.80;0.75;;;;;;;;;;5094473;28;20500;-80
2023/03/15 04:25:40;;;;;;;2.83;0.65;;;;;;;;;;5092953;28;20035;-81
2023/03/15 04:28:09;;;;;;;0.57;0.50;;;;;;;;;;5075900;28;20032;-81
2023/03/15 04:30:35;;;;;;;0.60;0.40;;;;;;;;;;5093166;28;20052;-82
2023/03/15 04:33:02;;;;;;;1.38;0.60;;;;;;;;;;5093874;28;20031;-81
2023/03/15 04:35:32;;;;;;;2.25;0.65;;;;;;;;;;5092846;28;20024;-81
2023/03/15 04:37:58;;;;;;;3.17;0.70;;;;;;;;;;5093890;28;20024;-81
2023/03/15 04:40:24;;;;;;;1.17;0.80;;;;;;;;;;5093458;28;20036;-81
2023/03/15 04:42:50;;;;;;;2.65;0.77;;;;;;;;;;5075503;28;20031;-82
2023/03/15 04:45:16;;;;;;;1.70;0.95;;;;;;;;;;5093799;28;20056;-82
2023/03/15 04:47:41;;;;;;;1.60;0.70;;;;;;;;;;5094091;28;20028;-82
2023/03/15 04:50:08;;;;;;;1.10;0.88;;;;;;;;;;5092959;28;20051;-80
2023/03/15 04:52:34;;;;;;;1.13;0.80;;;;;;;;;;5075633;28;20103;-82
2023/03/15 04:54:59;;;;;;;1.05;0.70;;;;;;;;;;5093600;28;20116;-82
2023/03/15 04:57:24;;;;;;;6.90;0.50;;;;;;;;;;5075384;28;20054;-82
2023/03/15 04:59:50;;;;;;;0.80;0.80;;;;;;;;;;5093697;28;20031;-82
2023/03/15 05:02:15;;;;;;;1.77;0.70;;;;;;;;;;5074700;28;20055;-82
2023/03/15 05:04:41;;;;;;;0.50;0.50;;;;;;;;;;5093271;28;20497;-82
2023/03/15 05:07:07;;;;;;;1.30;0.77;;;;;;;;;;5074847;28;20073;-82
2023/03/15 05:09:36;;;;;;;0.50;0.50;;;;;;;;;;5074816;28;20058;-82
2023/03/15 05:12:03;;;;;;;0.82;0.70;;;;;;;;;;5092751;28;20437;-83
2023/03/15 05:14:28;;;;;;;1.75;0.57;;;;;;;;;;5058004;28;20028;-82
2023/03/15 05:16:55;;;;;;;1.40;0.80;;;;;;;;;;5074569;28;20032;-83
2023/03/15 05:19:20;;;;;;;1.20;0.70;;;;;;;;;;5074471;28;20032;-83
2023/03/15 05:21:46;;;;;;;0.52;0.52;;;;;;;;;;5091469;28;20442;-83
2023/03/15 05:24:11;;;;;;;2.22;0.60;;;;;;;;;;5092542;28;20544;-83
2023/03/15 05:26:36;;;;;;;0.50;0.40;;;;;;;;;;5092755;28;20047;-84
2023/03/15 05:29:02;;;;;;;0.70;0.70;;;;;;;;;;5074197;28;20023;-83
2023/03/15 05:31:28;;;;;;;1.27;0.73;;;;;;;;;;5092485;28;20145;-82
2023/03/15 05:33:53;;;;;;;3.70;0.93;;;;;;;;;;5074254;28;20509;-81
2023/03/15 05:36:19;;;;;;;1.77;1.10;;;;;;;;;;5092409;28;20039;-80
2023/03/15 05:38:44;;;;;;;2.75;1.30;;;;;;;;;;5074362;28;20328;-80
2023/03/15 05:41:09;;;;;;;8.88;1.67;;;;;;;;;;5091636;28;20036;-80
2023/03/15 05:43:35;;;;;;;6.70;1.80;;;;;;;;;;5074597;28;20035;-79
2023/03/15 05:46:00;;;;;;;8.60;2.72;;;;;;;;;;5074525;28;20036;-80
2023/03/15 05:48:26;;;;;;;8.68;2.90;;;;;;;;;;5092388;28;20058;-83
2023/03/15 05:50:51;;;;;;;10.43;2.80;;;;;;;;;;5092492;28;20474;-81
2023/03/15 05:53:17;;;;;;;12.52;3.58;;;;;;;;;;5092696;28;20024;-82
2023/03/15 05:55:42;;;;;;;13.23;3.22;;;;;;;;;;5074383;28;20110;-81
2023/03/15 05:58:08;;;;;;;8.32;2.88;;;;;;;;;;5091965;28;20391;-85
2023/03/15 06:00:33;;;;;;;7.43;2.65;;;;;;;;;;5075256;28;20124;-81
2023/03/15 06:02:59;;;;;;;26.67;5.50;;;;;;;;;;5078419;28;20056;-81
2023/03/15 06:05:24;;;;;;;22.83;4.38;;;;;;;;;;5063561;28;20028;-81
2023/03/15 06:07:50;;;;;;;24.35;4.03;;;;;;;;;;5102737;28;20027;-80
2023/03/15 06:10:15;;;;;;;16.17;3.75;;;;;;;;;;5081208;28;20165;-81
2023/03/15 06:12:40;;;;;;;18.50;4.20;;;;;;;;;;5096994;28;20077;-80
2023/03/15 06:15:07;;;;;;;11.85;3.92;;;;;;;;;;5081282;28;20470;-81
2023/03/15 06:17:32;;;;;;;21.25;4.15;;;;;;;;;;5080176;28;20028;-80
2023/03/15 06:19:58;;;;;;;16.92;3.10;;;;;;;;;;5080036;28;20134;-81
2023/03/15 06:22:23;;;;;;;12.40;3.20;;;;;;;;;;5096563;28;20107;-80
2023/03/15 06:24:48;;;;;;;9.15;2.60;;;;;;;;;;5096339;28;20074;-82
2023/03/15 06:27:14;;;;;;;14.70;3.33;;;;;;;;;;5062967;28;20032;-83
2023/03/15 06:29:39;;;;;;;14.43;2.70;;;;;;;;;;5079476;28;20031;-84
2023/03/15 06:32:05;;;;;;;10.65;2.97;;;;;;;;;;5095939;28;20027;-84
2023/03/15 06:34:30;;;;;;;10.15;2.83;;;;;;;;;;5095548;28;20050;-82
2023/03/15 06:36:56;;;;;;;15.18;2.53;;;;;;;;;;5095916;28;20079;-83
2023/03/15 06:39:22;;;;;;;13.43;2.15;;;;;;;;;;5078280;28;20163;-84
2023/03/15 06:41:48;;;;;;;14.48;2.75;;;;;;;;;;5098271;28;20065;-81
2023/03/15 06:44:13;;;;;;;16.67;2.92;;;;;;;;;;5085565;28;20023;-82
2023/03/15 06:46:39;;;;;;;10.00;2.35;;;;;;;;;;5081425;28;20082;-84
2023/03/15 06:52:43;;;;;;;7.68;2.13;;;;;;;;;;5106794;28;20438;-87
2023/03/15 06:55:11;;;;;;;7.65;2.15;;;;;;;;;;5099876;28;20112;-85
2023/03/15 06:57:36;;;;;;;6.25;2.42;;;;;;;;;;5118806;28;20031;-88
2023/03/15 07:00:05;;;;;;;12.05;2.00;;;;;;;;;;5122336;28;20039;-86
2023/03/15 07:02:36;;;;;;;8.27;2.50;;;;;;;;;;5120468;28;20087;-86
2023/03/15 07:05:02;;;;;;;5.18;1.98;;;;;;;;;;5089817;28;20023;-86
2023/03/15 07:07:27;;;;;;;4.07;2.13;;;;;;;;;;5068086;28;20027;-87
2023/03/15 07:09:53;;;;;;;13.75;1.88;;;;;;;;;;5084136;28;20036;-87
2023/03/15 07:12:18;;;;;;;5.82;1.60;;;;;;;;;;5063290;28;20130;-83
2023/03/15 07:14:45;;;;;;;4.15;1.80;;;;;;;;;;5062765;28;20040;-86
2023/03/15 07:17:11;;;;;;;6.35;1.60;;;;;;;;;;5068265;28;20089;-84
2023/03/15 07:19:36;;;;;;;6.93;1.67;;;;;;;;;;5073600;28;20463;-84
2023/03/15 07:22:02;;;;;;;4.88;1.67;;;;;;;;;;5082191;28;20031;-82
2023/03/15 07:24:27;;;;;;;5.53;1.80;;;;;;;;;;5129176;28;20107;-87
2023/03/15 07:26:55;;;;;;;6.43;1.80;;;;;;;;;;5094953;28;20027;-85
2023/03/15 07:29:23;;;;;;;6.80;1.77;;;;;;;;;;5079529;28;20038;-81
2023/03/15 07:31:49;;;;;;;3.30;1.90;;;;;;;;;;5090279;28;20088;-83
2023/03/15 07:34:15;;;;;;;5.60;1.77;;;;;;;;;;5085976;28;20040;-83
2023/03/15 07:36:40;;;;;;;2.50;1.38;;;;;;;;;;5079829;28;20032;-82
2023/03/15 07:39:06;;;;;;;4.35;1.50;;;;;;;;;;5098633;28;20055;-84
2023/03/15 07:41:31;;;;;;;7.20;1.77;;;;;;;;;;5081582;28;20134;-82
2023/03/15 07:43:56;;;;;;;4.28;1.80;;;;;;;;;;5064949;28;20043;-85
2023/03/15 07:46:22;;;;;;;2.70;1.40;;;;;;;;;;5095772;28;20127;-82
2023/03/15 07:48:47;;;;;;;1.88;1.30;;;;;;;;;;5078170;28;20108;-83
2023/03/15 07:51:13;;;;;;;3.42;1.67;;;;;;;;;;5106112;28;20040;-83
2023/03/15 07:53:38;;;;;;;4.15;1.60;;;;;;;;;;5078027;28;20422;-89
2023/03/15 07:56:04;;;;;;;5.68;1.50;;;;;;;;;;5061497;28;20028;-86
2023/03/15 07:58:30;;;;;;;4.57;1.60;;;;;;;;;;5101940;28;20036;-87
2023/03/15 08:00:56;;;;;;;3.47;1.88;;;;;;;;;;5073048;28;20494;-86
2023/03/15 08:03:28;;;;;;;7.38;1.60;;;;;;;;;;5070147;28;20039;-83
2023/03/15 08:05:53;;;;;;;5.10;1.90;;;;;;;;;;5064229;28;20036;-82
2023/03/15 08:08:19;;;;;;;2.97;1.52;;;;;;;;;;5061705;28;20029;-84
2023/03/15 08:10:45;;;;;;;3.17;1.80;;;;;;;;;;5065388;28;20394;-86
2023/03/15 08:13:11;;;;;;;4.22;1.50;;;;;;;;;;5061375;28;20532;-89
2023/03/15 08:15:36;;;;;;;2.40;1.40;;;;;;;;;;5057058;28;20559;-81
2023/03/15 08:18:02;;;;;;;6.15;1.60;;;;;;;;;;5060879;28;20033;-82
2023/03/15 08:20:28;;;;;;;2.13;1.33;;;;;;;;;;5068907;28;20109;-85
2023/03/15 08:22:53;;;;;;;2.63;1.38;;;;;;;;;;5058699;28;20020;-84
2023/03/15 08:25:22;;;;;;;2.78;1.38;;;;;;;;;;5075674;28;20139;-82
2023/03/15 08:27:48;;;;;;;2.40;1.30;;;;;;;;;;5058235;28;20028;-84
2023/03/15 08:30:14;;;;;;;2.83;1.40;;;;;;;;;;5063098;28;20020;-83
2023/03/15 08:32:41;;;;;;;2.50;1.23;;;;;;;;;;5050926;28;20068;-84
2023/03/15 08:35:07;;;;;;;2.10;1.35;;;;;;;;;;5046459;28;20025;-84
2023/03/15 08:37:33;;;;;;;4.45;1.52;;;;;;;;;;5062508;28;20027;-81
2023/03/15 08:40:08;;;;;;;6.68;1.55;;;;;;;;;;5080435;28;20560;-80
2023/03/15 08:42:34;;;;;;;2.90;1.45;;;;;;;;;;5093985;28;20081;-81
2023/03/15 08:45:00;;;;;;;4.05;1.27;;;;;;;;;;5068447;28;20110;-81
2023/03/15 08:47:26;;;;;;;3.80;1.35;;;;;;;;;;5075756;28;20123;-79
2023/03/15 08:49:52;;;;;;;2.63;1.40;;;;;;;;;;5075891;28;20107;-80
2023/03/15 08:52:21;;;;;;;1.85;1.05;;;;;;;;;;5073393;28;20057;-80
2023/03/15 08:54:47;;;;;;;2.35;1.20;;;;;;;;;;5081438;28;20487;-88
2023/03/15 08:57:13;;;;;;;2.30;1.40;;;;;;;;;;5046643;28;20051;-85
2023/03/15 08:59:39;;;;;;;2.38;1.38;;;;;;;;;;5057620;28;20499;-84
2023/03/15 09:02:04;;;;;;;3.63;1.20;;;;;;;;;;5057053;28;20027;-84
2023/03/15 09:04:30;;;;;;;4.38;1.35;;;;;;;;;;5091698;28;20051;-86
2023/03/15 09:06:56;;;;;;;2.25;1.55;;;;;;;;;;5061034;28;20031;-85
2023/03/15 09:09:25;;;;;;;4.18;1.30;;;;;;;;;;5061281;28;20028;-87
2023/03/15 09:11:50;;;;;;;1.92;1.02;;;;;;;;;;5053740;28;20032;-90
2023/03/15 09:14:15;;;;;;;8.23;1.13;;;;;;;;;;5077266;28;20028;-84
2023/03/15 09:16:41;;;;;;;4.22;1.10;;;;;;;;;;5059445;28;20028;-87
2023/03/15 09:19:06;;;;;;;3.90;1.00;;;;;;;;;;5061175;28;20032;-84
2023/03/15 09:21:32;;;;;;;0.98;0.93;;;;;;;;;;5092539;28;20051;-84
2023/03/15 09:23:57;;;;;;;3.50;1.30;;;;;;;;;;5057002;28;20032;-83
2023/03/15 09:26:22;;;;;;;1.58;0.90;;;;;;;;;;5063105;28;20042;-88
2023/03/15 09:28:48;;;;;;;2.67;1.00;;;;;;;;;;5059476;28;20028;-84
2023/03/15 09:31:13;;;;;;;3.05;1.15;;;;;;;;;;5058354;28;20031;-82
2023/03/15 09:33:39;;;;;;;3.65;1.30;;;;;;;;;;5036354;28;20716;-85
2023/03/15 09:36:04;;;;;;;2.17;1.00;;;;;;;;;;5064237;28;20029;-85
2023/03/15 09:38:30;;;;;;;1.80;1.00;;;;;;;;;;5073902;28;20032;-89
2023/03/15 09:40:57;;;;;;;4.35;1.20;;;;;;;;;;5082098;28;20056;-88
2023/03/15 09:43:48;;;;;;;2.63;1.20;;;;;;;;;;5070190;28;20032;-91
2023/03/15 09:46:24;;;;;;;2.78;0.73;;;;;;;;;;5091575;28;20016;-86
2023/03/15 09:48:58;;;;;;;2.35;0.80;;;;;;;;;;5070386;28;20020;-82
2023/03/15 09:51:37;;;;;;;10.02;1.10;;;;;;;;;;5076385;28;20048;-86
2023/03/15 09:54:10;;;;;;;1.52;0.80;;;;;;;;;;5071438;28;20060;-83
2023/03/15 09:56:39;;;;;;;1.70;1.10;;;;;;;;;;5071572;28;20021;-81
2023/03/15 09:59:05;;;;;;;2.67;1.20;;;;;;;;;;5070943;28;20063;-81
2023/03/15 10:01:34;;;;;;;2.15;1.23;;;;;;;;;;5071259;28;20060;-84
2023/03/15 10:04:23;;;;;;;1.65;0.93;;;;;;;;;;5071336;28;20076;-82
2023/03/15 10:06:53;;;;;;;1.45;0.93;;;;;;;;;;5064003;28;20064;-82
2023/03/15 10:09:21;;;;;;;1.23;1.00;;;;;;;;;;5070690;28;20513;-82
2023/03/15 10:12:18;;;;;;;2.55;1.05;;;;;;;;;;5071570;28;20036;-82
2023/03/15 10:14:57;;;;;;;1.75;0.90;;;;;;;;;;5069412;28;20040;-80
2023/03/15 10:17:35;;;;;;;2.40;0.90;;;;;;;;;;5071568;28;20024;-80
2023/03/15 10:20:08;;;;;;;2.33;0.90;;;;;;;;;;5072769;28;20036;-82
2023/03/15 10:22:40;;;;;;;1.70;1.05;;;;;;;;;;5055034;28;20028;-81
2023/03/15 10:25:28;;;;;;;3.42;1.00;;;;;;;;;;5055209;28;20029;-80
2023/03/15 10:28:12;;;;;;;0.93;0.80;;;;;;;;;;5070920;28;20090;-82
2023/03/15 10:30:39;;;;;;;2.03;1.20;;;;;;;;;;5072479;28;20467;-80
2023/03/15 10:33:33;;;;;;;2.53;1.10;;;;;;;;;;5071831;28;20452;-80
2023/03/15 10:35:59;;;;;;;3.67;0.90;;;;;;;;;;5052350;28;20111;-81
2023/03/15 10:38:25;;;;;;;2.53;1.00;;;;;;;;;;5071345;28;20036;-82
2023/03/15 10:40:56;;;;;;;2.05;0.90;;;;;;;;;;5071833;28;20031;-83
2023/03/15 10:43:31;;;;;;;2.13;0.93;;;;;;;;;;5071540;28;20028;-81
2023/03/15 10:46:07;;;;;;;1.38;0.80;;;;;;;;;;5072341;28;20040;-82
2023/03/15 10:48:34;;;;;;;1.65;0.90;;;;;;;;;;5072000;28;20035;-81
2023/03/15 10:51:05;;;;;;;4.65;1.23;;;;;;;;;;5078074;28;20104;-80
2023/03/15 10:53:31;;;;;;;3.13;1.10;;;;;;;;;;5078114;28;20020;-82
2023/03/15 10:56:03;;;;;;;2.67;1.40;;;;;;;;;;5078670;28;20031;-81
2023/03/15 10:58:37;;;;;;;2.13;1.00;;;;;;;;;;5077621;28;20020;-80
2023/03/15 11:01:06;;;;;;;2.95;1.05;;;;;;;;;;5095849;28;20028;-80
2023/03/15 11:03:32;;;;;;;2.53;1.13;;;;;;;;;;5077940;28;20086;-82
2023/03/15 11:05:58;;;;;;;2.10;1.00;;;;;;;;;;5078867;28;20039;-79
2023/03/15 11:08:44;;;;;;;4.35;1.17;;;;;;;;;;5077560;28;20031;-82
2023/03/15 11:11:09;;;;;;;3.28;1.10;;;;;;;;;;5095114;28;20047;-82
2023/03/15 11:13:36;;;;;;;2.72;1.00;;;;;;;;;;5057456;28;20032;-83
2023/03/15 11:16:14;;;;;;;2.45;1.08;;;;;;;;;;5092440;28;20107;-81
2023/03/15 11:18:52;;;;;;;1.88;1.20;;;;;;;;;;5076934;28;20115;-82
2023/03/15 11:21:18;;;;;;;2.50;1.20;;;;;;;;;;5061076;28;20161;-82
2023/03/15 11:23:48;;;;;;;2.28;1.20;;;;;;;;;;5077709;28;20028;-83
2023/03/15 11:26:18;;;;;;;1.63;1.05;;;;;;;;;;5096771;28;20031;-83
2023/03/15 11:28:49;;;;;;;3.95;1.13;;;;;;;;;;5062567;28;20016;-82
2023/03/15 11:31:14;;;;;;;2.13;0.90;;;;;;;;;;5060794;28;20059;-82
2023/03/15 11:33:42;;;;;;;1.92;1.15;;;;;;;;;;5077574;28;20356;-81
2023/03/15 11:36:13;;;;;;;1.85;0.80;;;;;;;;;;5095623;28;20071;-82
2023/03/15 11:38:43;;;;;;;4.55;0.90;;;;;;;;;;5078248;28;20028;-81
2023/03/15 11:41:19;;;;;;;2.65;0.93;;;;;;;;;;5076897;28;20134;-81
2023/03/15 11:43:55;;;;;;;2.83;1.00;;;;;;;;;;5077654;28;20073;-82
2023/03/15 11:46:29;;;;;;;3.17;1.00;;;;;;;;;;5094899;28;20026;-82
2023/03/15 11:49:08;;;;;;;2.78;1.10;;;;;;;;;;5060006;28;20022;-82
2023/03/15 11:51:35;;;;;;;2.53;0.90;;;;;;;;;;5059827;28;20052;-82
2023/03/15 11:54:12;;;;;;;4.65;1.00;;;;;;;;;;5060016;28;20110;-82
2023/03/15 11:56:43;;;;;;;3.03;1.15;;;;;;;;;;5076525;28;20123;-82
2023/03/15 11:59:11;;;;;;;2.10;1.00;;;;;;;;;;5076464;28;20107;-84
2023/03/15 12:01:45;;;;;;;3.10;1.10;;;;;;;;;;5076768;28;20415;-83
2023/03/15 12:04:32;;;;;;;2.58;0.98;;;;;;;;;;5060783;28;20043;-82
2023/03/15 12:07:16;;;;;;;1.23;0.68;;;;;;;;;;5094936;28;20013;-82
2023/03/15 12:09:54;;;;;;;2.90;1.02;;;;;;;;;;5094818;28;20020;-82
2023/03/15 12:12:23;;;;;;;4.18;0.95;;;;;;;;;;5060350;28;20036;-79
2023/03/15 12:15:17;;;;;;;2.25;0.88;;;;;;;;;;5094855;28;20379;-80
2023/03/15 12:17:58;;;;;;;1.77;0.95;;;;;;;;;;5073924;28;20036;-80
2023/03/15 12:20:36;;;;;;;2.70;0.90;;;;;;;;;;5076527;28;20077;-79
2023/03/15 12:23:11;;;;;;;6.63;0.90;;;;;;;;;;5094243;28;20059;-79
2023/03/15 12:25:56;;;;;;;3.45;1.00;;;;;;;;;;5075990;28;20032;-79
2023/03/15 12:28:36;;;;;;;6.50;0.90;;;;;;;;;;5093486;28;20118;-79
2023/03/15 12:31:03;;;;;;;1.83;0.85;;;;;;;;;;5094020;28;20024;-78
2023/03/15 12:33:30;;;;;;;1.73;0.90;;;;;;;;;;5075873;28;20102;-78
2023/03/15 12:36:08;;;;;;;2.95;0.80;;;;;;;;;;5059327;28;20077;-79
2023/03/15 12:38:40;;;;;;;2.10;1.10;;;;;;;;;;5075949;28;20039;-81
2023/03/15 12:41:33;;;;;;;2.15;1.20;;;;;;;;;;5059212;28;20031;-81
2023/03/15 12:44:16;;;;;;;1.83;0.68;;;;;;;;;;5076965;28;20111;-80
2023/03/15 12:46:42;;;;;;;2.78;1.13;;;;;;;;;;5095473;28;20037;-82
2023/03/15 12:49:17;;;;;;;4.63;0.93;;;;;;;;;;5094137;28;20137;-81
2023/03/15 12:52:00;;;;;;;2.40;0.85;;;;;;;;;;5094441;28;20048;-83
2023/03/15 12:54:59;;;;;;;2.55;1.05;;;;;;;;;;5095746;28;20024;-82
2023/03/15 12:57:28;;;;;;;5.07;0.80;;;;;;;;;;5076316;28;20024;-83
2023/03/15 12:59:55;;;;;;;2.47;0.98;;;;;;;;;;5076516;28;20111;-82
2023/03/15 13:02:45;;;;;;;5.15;1.15;;;;;;;;;;5076785;28;20028;-82
2023/03/15 13:05:23;;;;;;;4.18;1.05;;;;;;;;;;5076126;28;20039;-82
2023/03/15 13:07:51;;;;;;;1.95;1.00;;;;;;;;;;5059531;28;20034;-81
2023/03/15 13:10:40;;;;;;;2.72;0.85;;;;;;;;;;5076967;28;20020;-82
2023/03/15 13:13:24;;;;;;;3.03;1.20;;;;;;;;;;5095610;28;20031;-83
2023/03/15 13:16:05;;;;;;;2.53;1.10;;;;;;;;;;5077440;28;20028;-84
2023/03/15 13:18:35;;;;;;;4.00;1.17;;;;;;;;;;5095003;28;20032;-84
2023/03/15 13:21:12;;;;;;;2.90;0.80;;;;;;;;;;5076240;28;20161;-86
2023/03/15 13:23:42;;;;;;;1.55;0.90;;;;;;;;;;5077219;28;20053;-83
2023/03/15 13:26:16;;;;;;;3.00;0.80;;;;;;;;;;5076085;28;20024;-86
2023/03/15 13:28:49;;;;;;;0.80;0.70;;;;;;;;;;5076087;28;20022;-83
2023/03/15 13:31:17;;;;;;;5.13;0.93;;;;;;;;;;5076100;28;20028;-82
2023/03/15 13:33:46;;;;;;;3.60;0.90;;;;;;;;;;5094329;28;20036;-84
2023/03/15 13:36:14;;;;;;;1.45;0.85;;;;;;;;;;5078150;28;20039;-83
2023/03/15 13:38:45;;;;;;;1.60;0.95;;;;;;;;;;5093911;28;20032;-85
2023/03/15 13:41:26;;;;;;;2.28;0.85;;;;;;;;;;5058686;28;20035;-84
2023/03/15 13:43:55;;;;;;;1.45;0.90;;;;;;;;;;5076320;28;20489;-84
2023/03/15 13:46:23;;;;;;;2.38;0.73;;;;;;;;;;5075605;28;20109;-83
2023/03/15 13:48:49;;;;;;;2.30;1.02;;;;;;;;;;5076444;28;20027;-83
2023/03/15 13:51:29;;;;;;;4.68;1.00;;;;;;;;;;5077034;28;20422;-83
2023/03/15 13:54:01;;;;;;;3.30;1.00;;;;;;;;;;5078447;28;20028;-84
2023/03/15 13:56:32;;;;;;;2.28;0.90;;;;;;;;;;5061483;28;20024;-82
2023/03/15 13:58:58;;;;;;;1.33;0.80;;;;;;;;;;5075827;28;20407;-85
2023/03/15 14:01:25;;;;;;;3.10;0.80;;;;;;;;;;5039241;28;20063;-85
2023/03/15 14:03:58;;;;;;;2.05;0.80;;;;;;;;;;5091178;28;20043;-83
2023/03/15 14:06:25;;;;;;;1.17;0.70;;;;;;;;;;5098102;28;20025;-84
2023/03/15 14:08:53;;;;;;;1.20;0.75;;;;;;;;;;5097976;28;20051;-85
2023/03/15 14:11:25;;;;;;;1.83;0.88;;;;;;;;;;5063999;28;20028;-85
2023/03/15 14:13:57;;;;;;;2.10;0.77;;;;;;;;;;5099276;28;20043;-83
2023/03/15 14:16:39;;;;;;;3.95;0.90;;;;;;;;;;5094530;28;20027;-83
2023/03/15 14:19:17;;;;;;;5.55;0.88;;;;;;;;;;5058155;28;20024;-84
2023/03/15 14:21:53;;;;;;;1.63;0.90;;;;;;;;;;5075958;28;20111;-84
2023/03/15 14:24:28;;;;;;;3.20;1.00;;;;;;;;;;5061579;28;20028;-83
2023/03/15 14:26:56;;;;;;;1.15;0.90;;;;;;;;;;5063330;28;20050;-84
2023/03/15 14:29:33;;;;;;;1.80;0.93;;;;;;;;;;5063590;28;20053;-84
2023/03/15 14:32:05;;;;;;;1.88;0.68;;;;;;;;;;5081029;28;20020;-83
2023/03/15 14:34:45;;;;;;;1.85;1.00;;;;;;;;;;5081660;28;20112;-84
2023/03/15 14:37:28;;;;;;;1.58;0.75;;;;;;;;;;5084673;28;20030;-84
2023/03/15 14:40:08;;;;;;;4.28;0.85;;;;;;;;;;5102435;28;20024;-84
2023/03/15 14:42:34;;;;;;;2.08;0.75;;;;;;;;;;5084428;28;20028;-86
2023/03/15 14:44:59;;;;;;;1.45;0.90;;;;;;;;;;5083101;28;20039;-85
2023/03/15 14:47:25;;;;;;;3.60;1.08;;;;;;;;;;5101350;28;20024;-85
2023/03/15 14:49:50;;;;;;;1.77;0.73;;;;;;;;;;5080093;28;20044;-85
2023/03/15 14:52:16;;;;;;;2.03;0.95;;;;;;;;;;5098282;28;20028;-85
2023/03/15 14:54:47;;;;;;;1.15;0.70;;;;;;;;;;5064651;28;20035;-85
2023/03/15 14:57:12;;;;;;;1.40;0.70;;;;;;;;;;5080313;28;20036;-84
2023/03/15 14:59:38;;;;;;;1.33;0.77;;;;;;;;;;5096964;28;20031;-84